Portada
METAR-TAF:

METAR-TAF

Aeroports :

Caldwell, Nova Jersey, Estats Units d'Amèrica

latitud: 40-52-35N, longitud: 074-16-59W, altitud: 52 m

Observació

L'informe es va fer fa 38 minuts, a les 22:53 UTC
Vent 5 kt del Nord/Nord-Est
Temperatura 10°C
Humitat 76%
Pressió 1005 hPa
Visibilitat: 16.1 km
Cel cobert a una alçada de 7000 ft
pluja

METAR: KCDW 152253Z 03005KT 10SM -RA OVC070 10/06 A2967 RMK AO2 SLP053 P0001 T01000061

Hora: 19:31 (23:31 UTC)


TAF: manca

Observacions i pronòstics meteorològics de més de 4000 aeroports (METAR i TAF).

Les estacions disponibles són els punts grocs i vermells al mapa.

Posi el ratolí al punt desitjat per veure el nom de l'estació.

Feu clic per veure les observacions i els pronòstics meteorològics.

Per canviar el mapa: feu clic els botons verds amb una creu de color negre per apropar; al botó verd amb un guió per allunyar la imatge; o en les fletxes verdes per a mapes adjacents.


METAR-TAF: